Time;durP1;ratioP1;P1;durP2;ratioP2;P2;SDS_P1;SDS_P2;PMS_P1;PMS_P2;Temp;Humidity;BMP_temperature;BMP_pressure;BME280_temperature;BME280_humidity;BME280_pressure;Samples;Min_cycle;Max_cycle;Signal;HPM_P1;HPM_P2
2021/09/09 00:01:02;;;;;;;32.50;19.52;;;13.50;99.90;;;12.21;100.00;101695.13;5043042;28;20032;-76
2021/09/09 00:03:28;;;;;;;32.65;19.27;;;13.50;99.90;;;12.21;100.00;101710.97;5042606;28;20047;-76
2021/09/09 00:05:54;;;;;;;33.97;19.67;;;13.50;99.90;;;12.22;100.00;101717.94;5051406;28;20017;-76
2021/09/09 00:08:20;;;;;;;36.13;19.90;;;13.50;99.90;;;12.22;100.00;101734.66;5050465;28;20024;-76
2021/09/09 00:10:46;;;;;;;35.45;20.48;;;13.50;99.90;;;12.28;100.00;101749.41;5050281;28;20505;-76
2021/09/09 00:13:12;;;;;;;37.15;21.30;;;13.50;99.90;;;12.29;100.00;101767.00;5042692;28;20033;-76
2021/09/09 00:15:38;;;;;;;37.08;22.67;;;13.50;99.90;;;12.34;100.00;101785.31;5048114;28;20052;-76
2021/09/09 00:18:06;;;;;;;43.58;23.15;;;13.50;99.90;;;12.30;100.00;101822.38;5050910;28;20052;-76
2021/09/09 00:20:32;;;;;;;43.28;23.63;;;13.50;99.90;;;12.26;100.00;101831.31;5055884;28;20468;-76
2021/09/09 00:22:58;;;;;;;34.78;20.38;;;13.50;99.90;;;12.17;100.00;101851.94;5049980;28;20098;-76
2021/09/09 00:25:24;;;;;;;34.00;20.02;;;13.40;99.90;;;12.05;100.00;101856.72;5049531;28;20063;-76
2021/09/09 00:27:51;;;;;;;29.50;17.85;;;13.30;99.90;;;11.98;100.00;101851.69;5040773;28;20135;-76
2021/09/09 00:30:17;;;;;;;27.65;17.17;;;13.20;99.90;;;11.92;100.00;101841.34;5050770;28;20751;-76
2021/09/09 00:32:43;;;;;;;27.48;18.15;;;13.20;99.90;;;11.87;100.00;101842.34;5049399;28;20178;-76
2021/09/09 00:35:09;;;;;;;36.65;20.30;;;13.10;99.90;;;11.89;100.00;101826.47;5052814;28;20051;-76
2021/09/09 00:37:35;;;;;;;32.50;19.95;;;13.20;99.90;;;11.93;100.00;101869.47;5050392;28;20081;-76
2021/09/09 00:40:02;;;;;;;34.50;19.92;;;13.20;99.90;;;11.91;100.00;101872.16;5041164;28;20048;-76
2021/09/09 00:42:27;;;;;;;39.00;22.33;;;13.20;99.90;;;11.93;100.00;101887.97;5048049;28;20050;-76
2021/09/09 00:44:54;;;;;;;40.25;21.75;;;13.20;99.90;;;11.92;100.00;101918.75;5040162;28;20020;-76
2021/09/09 00:47:19;;;;;;;33.42;20.33;;;13.20;99.90;;;11.89;100.00;101927.63;5050317;28;20031;-76
2021/09/09 00:49:46;;;;;;;42.60;23.30;;;13.20;99.90;;;12.02;100.00;101983.53;5038682;28;20029;-76
2021/09/09 00:52:14;;;;;;;41.92;25.00;;;13.30;99.90;;;12.09;100.00;101995.63;5050507;28;20056;-76
2021/09/09 00:54:44;;;;;;;43.88;24.40;;;13.30;99.90;;;12.08;100.00;102016.78;5045391;28;20036;-76
2021/09/09 00:57:10;;;;;;;39.60;22.85;;;13.30;99.90;;;12.04;100.00;102039.78;5055679;28;20041;-76
2021/09/09 00:59:36;;;;;;;39.78;22.95;;;13.30;99.90;;;12.07;100.00;102044.09;5049063;28;20037;-76
2021/09/09 01:02:05;;;;;;;45.65;25.75;;;13.40;99.90;;;12.19;100.00;102067.47;5050229;28;20028;-76
2021/09/09 01:04:31;;;;;;;46.75;25.63;;;13.40;99.90;;;12.18;100.00;102088.63;5047828;28;20094;-76
2021/09/09 01:07:00;;;;;;;48.72;27.63;;;13.40;99.90;;;12.19;100.00;102064.84;5040954;28;20604;-76
2021/09/09 01:09:27;;;;;;;50.80;27.58;;;13.50;99.90;;;12.23;100.00;102113.16;5050525;28;20028;-76
2021/09/09 01:11:53;;;;;;;50.85;27.13;;;13.40;99.90;;;12.20;100.00;102100.91;5049849;28;20165;-76
2021/09/09 01:14:22;;;;;;;49.33;27.65;;;13.40;99.90;;;12.19;100.00;102130.84;5048058;28;20504;-76
2021/09/09 01:16:49;;;;;;;49.42;27.65;;;13.40;99.90;;;12.25;100.00;102138.59;5050394;28;20274;-76
2021/09/09 01:19:17;;;;;;;49.10;28.52;;;13.50;99.90;;;12.27;100.00;102149.09;5031751;28;20058;-76
2021/09/09 01:21:43;;;;;;;46.30;27.10;;;13.50;99.90;;;12.17;100.00;102135.31;5038452;28;20033;-76
2021/09/09 01:24:18;;;;;;;55.22;27.77;;;13.40;99.90;;;12.15;100.00;102136.28;5046257;28;20037;-76
2021/09/09 01:26:50;;;;;;;48.80;26.33;;;13.40;99.90;;;12.15;100.00;102131.84;5041760;28;20363;-76
2021/09/09 01:29:17;;;;;;;47.30;26.48;;;13.40;99.90;;;12.11;100.00;102117.88;5050295;28;20066;-76
2021/09/09 01:31:43;;;;;;;38.47;23.88;;;13.30;99.90;;;12.00;100.00;102119.13;5065243;28;20040;-76
2021/09/09 01:34:10;;;;;;;42.42;24.05;;;13.30;99.90;;;11.99;100.00;102128.81;5064828;28;20021;-76
2021/09/09 01:36:36;;;;;;;35.25;22.45;;;13.20;99.90;;;11.95;100.00;102164.13;5049362;28;20029;-76
2021/09/09 01:39:03;;;;;;;40.85;21.88;;;13.20;99.90;;;11.96;100.00;102178.19;5065086;28;20035;-76
2021/09/09 01:41:29;;;;;;;41.05;23.70;;;13.20;99.90;;;11.96;100.00;102139.47;5046737;28;20024;-76
2021/09/09 01:43:57;;;;;;;43.10;24.88;;;13.20;99.90;;;11.97;100.00;102154.41;5032155;28;20039;-76
2021/09/09 01:46:23;;;;;;;45.42;24.20;;;13.20;99.90;;;11.99;100.00;102181.63;5033097;28;20066;-76
2021/09/09 01:48:50;;;;;;;45.40;26.45;;;13.20;99.90;;;12.11;100.00;102197.06;5045037;28;20037;-76
2021/09/09 01:51:16;;;;;;;45.47;25.83;;;13.30;99.90;;;12.14;100.00;102195.25;5040599;28;20570;-76
2021/09/09 01:53:42;;;;;;;44.88;25.67;;;13.50;99.90;;;12.32;100.00;102224.63;5046585;28;20068;-76
2021/09/09 01:56:08;;;;;;;48.95;29.17;;;13.60;99.90;;;12.39;100.00;102253.50;5049295;28;20025;-76
2021/09/09 01:58:37;;;;;;;56.50;29.48;;;13.60;99.90;;;12.44;100.00;102283.28;5038854;28;20168;-76
2021/09/09 02:01:03;;;;;;;51.88;29.42;;;13.60;99.90;;;12.42;100.00;102262.22;5047204;28;20138;-76
2021/09/09 02:03:29;;;;;;;50.03;26.05;;;13.60;99.90;;;12.41;100.00;102293.94;5032190;28;20032;-76
2021/09/09 02:05:55;;;;;;;48.65;26.67;;;13.60;99.90;;;12.40;100.00;102297.53;5030579;28;20040;-76
2021/09/09 02:08:21;;;;;;;50.05;27.30;;;13.60;99.90;;;12.38;100.00;102301.97;5046883;28;20033;-76
2021/09/09 02:10:47;;;;;;;45.28;26.40;;;13.60;99.90;;;12.37;100.00;102326.66;5030124;28;20044;-76
2021/09/09 02:13:14;;;;;;;45.95;27.00;;;13.60;99.90;;;12.35;100.00;102371.59;5041532;28;20025;-76
2021/09/09 02:15:40;;;;;;;49.80;26.25;;;13.60;99.90;;;12.33;100.00;102360.19;5038844;28;20020;-76
2021/09/09 02:18:06;;;;;;;46.90;26.05;;;13.50;99.90;;;12.29;100.00;102377.94;5038249;28;20498;-76
2021/09/09 02:20:32;;;;;;;48.97;27.98;;;13.50;99.90;;;12.30;100.00;102374.34;5029215;28;20388;-76
2021/09/09 02:22:58;;;;;;;51.50;28.17;;;13.50;99.90;;;12.26;100.00;102424.66;5022889;28;20028;-76
2021/09/09 02:25:24;;;;;;;47.55;27.27;;;13.50;99.90;;;12.19;100.00;102415.19;5032858;28;20504;-76
2021/09/09 02:27:50;;;;;;;43.13;26.55;;;13.40;99.90;;;12.15;100.00;102464.56;5032452;28;20032;-76
2021/09/09 02:30:17;;;;;;;48.50;28.17;;;13.30;99.90;;;12.10;100.00;102501.66;5053907;28;20040;-76
2021/09/09 02:32:43;;;;;;;49.47;27.17;;;13.30;99.90;;;12.08;100.00;102484.13;5027453;28;20028;-76
2021/09/09 02:35:09;;;;;;;49.35;25.73;;;13.30;99.90;;;12.04;100.00;102496.53;5051873;28;20384;-76
2021/09/09 02:37:35;;;;;;;47.53;25.83;;;13.30;99.90;;;12.00;100.00;102500.13;5034952;28;20028;-76
2021/09/09 02:40:02;;;;;;;43.47;24.95;;;13.20;99.90;;;12.00;100.00;102534.44;5026358;28;20048;-76
2021/09/09 02:42:29;;;;;;;44.72;25.88;;;13.20;99.90;;;11.96;100.00;102518.72;5059875;28;20036;-76
2021/09/09 02:44:55;;;;;;;41.25;25.17;;;13.20;99.90;;;11.95;100.00;102528.44;5044718;28;20115;-76
2021/09/09 02:47:21;;;;;;;42.92;24.65;;;13.20;99.90;;;11.93;100.00;102500.34;5050309;28;20024;-76
2021/09/09 02:49:47;;;;;;;40.83;24.38;;;13.20;99.90;;;11.97;100.00;102545.09;5051701;28;20036;-76
2021/09/09 02:52:13;;;;;;;47.25;25.38;;;13.20;99.90;;;11.94;100.00;102531.09;5042506;28;20407;-76
2021/09/09 02:54:39;;;;;;;44.70;27.08;;;13.20;99.90;;;11.95;100.00;102560.09;5044709;28;20120;-76
2021/09/09 02:57:05;;;;;;;40.10;25.33;;;13.20;99.90;;;11.95;100.00;102560.09;5024062;28;20412;-76
2021/09/09 02:59:31;;;;;;;51.40;27.20;;;13.20;99.90;;;11.96;100.00;102579.44;5035458;28;20021;-76
2021/09/09 03:01:57;;;;;;;49.20;27.35;;;13.20;99.90;;;11.95;100.00;102631.38;5050775;28;20879;-76
2021/09/09 03:04:23;;;;;;;46.85;26.15;;;13.20;99.90;;;11.91;100.00;102621.78;5042441;28;20138;-76
2021/09/09 03:06:49;;;;;;;48.08;27.40;;;13.20;99.90;;;11.89;100.00;102621.81;5066663;28;20077;-76
2021/09/09 03:09:15;;;;;;;48.72;28.63;;;13.20;99.90;;;11.94;100.00;102621.72;5035287;28;20055;-76
2021/09/09 03:11:41;;;;;;;51.75;29.05;;;13.20;99.90;;;11.97;100.00;102668.31;5049167;28;20047;-76
2021/09/09 03:14:07;;;;;;;52.88;30.48;;;13.20;99.90;;;11.96;100.00;102626.97;5044050;28;20434;-76
2021/09/09 03:16:33;;;;;;;49.92;28.30;;;13.20;99.90;;;11.88;100.00;102669.38;5041165;28;20032;-76
2021/09/09 03:18:59;;;;;;;57.15;29.30;;;13.10;99.90;;;11.82;100.00;102667.69;5035525;28;20071;-76
2021/09/09 03:21:25;;;;;;;56.70;29.58;;;13.10;99.90;;;11.80;100.00;102673.91;5052385;28;20036;-76
2021/09/09 03:23:51;;;;;;;54.40;29.40;;;13.00;99.90;;;11.78;100.00;102723.22;5050364;28;20021;-76
2021/09/09 03:26:17;;;;;;;52.90;29.00;;;13.00;99.90;;;11.79;100.00;102740.78;5043946;28;20025;-76
2021/09/09 03:28:43;;;;;;;56.17;29.50;;;13.00;99.90;;;11.77;100.00;102742.56;5049690;28;20037;-76
2021/09/09 03:31:09;;;;;;;58.85;30.40;;;13.10;99.90;;;11.76;100.00;102741.72;5032649;28;20443;-76
2021/09/09 03:33:38;;;;;;;57.17;31.05;;;13.00;99.90;;;11.73;100.00;102770.81;5041769;28;20063;-76
2021/09/09 03:36:04;;;;;;;53.92;29.08;;;13.00;99.90;;;11.78;100.00;102815.59;5044481;28;20553;-76
2021/09/09 03:38:30;;;;;;;54.38;30.20;;;13.10;99.90;;;11.79;100.00;102839.34;5048407;28;20128;-76
2021/09/09 03:40:56;;;;;;;86.93;32.08;;;13.10;99.90;;;11.85;100.00;102896.41;5033691;28;20119;-76
2021/09/09 03:43:22;;;;;;;64.75;32.92;;;13.10;99.90;;;11.89;100.00;102872.59;5057173;28;20029;-76
2021/09/09 03:45:48;;;;;;;69.20;34.13;;;13.10;99.90;;;11.89;100.00;102887.56;5047452;28;20025;-76
2021/09/09 03:48:14;;;;;;;64.90;34.95;;;13.10;99.90;;;11.92;100.00;102879.59;5049762;28;20059;-76
2021/09/09 03:50:40;;;;;;;67.03;34.63;;;13.10;99.90;;;11.85;100.00;102841.84;5031559;28;20037;-76
2021/09/09 03:53:06;;;;;;;69.90;34.83;;;13.10;99.90;;;11.80;100.00;102819.09;5050109;28;20353;-76
2021/09/09 03:55:33;;;;;;;69.05;34.03;;;13.00;99.90;;;11.79;100.00;102838.44;5050019;28;20051;-76
2021/09/09 03:57:59;;;;;;;62.17;34.95;;;13.00;99.90;;;11.75;100.00;102921.19;5047996;28;20482;-76
2021/09/09 04:00:25;;;;;;;60.50;31.45;;;13.00;99.90;;;11.67;100.00;102892.31;5050675;28;20081;-76
2021/09/09 04:02:52;;;;;;;55.97;32.22;;;12.90;99.90;;;11.61;100.00;102882.72;5024619;28;20020;-76
2021/09/09 04:05:18;;;;;;;55.42;29.40;;;12.90;99.90;;;11.64;100.00;102880.06;5058102;28;20036;-76
2021/09/09 04:07:44;;;;;;;53.92;29.27;;;12.90;99.90;;;11.67;100.00;102911.66;5048699;28;20071;-76
2021/09/09 04:10:11;;;;;;;51.97;30.20;;;12.90;99.90;;;11.61;100.00;102924.94;5066829;28;20024;-76
2021/09/09 04:12:37;;;;;;;57.70;29.20;;;12.90;99.90;;;11.66;100.00;102911.69;5041517;28;20516;-76
2021/09/09 04:15:04;;;;;;;54.17;29.77;;;12.90;99.90;;;11.60;100.00;102938.19;5059324;28;20059;-76
2021/09/09 04:17:33;;;;;;;52.80;31.15;;;12.80;99.90;;;11.56;100.00;102978.72;5049230;28;20447;-76
2021/09/09 04:19:59;;;;;;;62.08;31.58;;;12.80;99.90;;;11.58;100.00;102990.97;5041961;28;20028;-76
2021/09/09 04:22:25;;;;;;;68.30;33.13;;;12.80;99.90;;;11.59;100.00;102989.19;5043331;28;20237;-76
2021/09/09 04:24:52;;;;;;;63.35;32.78;;;;;;;11.53;100.00;102941.78;5065236;28;20063;-76
2021/09/09 04:27:22;;;;;;;59.58;32.17;;;12.80;99.90;;;11.51;100.00;102965.56;5052189;28;20045;-76
2021/09/09 04:29:51;;;;;;;64.00;33.95;;;12.80;99.90;;;11.55;100.00;102967.25;5054855;28;20388;-76
2021/09/09 04:32:18;;;;;;;63.88;33.50;;;12.80;99.90;;;11.60;100.00;103002.38;5035721;28;20028;-76
2021/09/09 04:34:45;;;;;;;78.78;35.72;;;12.80;99.90;;;11.60;100.00;103015.56;5039157;28;20111;-76
2021/09/09 04:37:11;;;;;;;70.32;36.42;;;12.80;99.90;;;11.65;100.00;103079.69;5045359;28;20032;-76
2021/09/09 04:39:37;;;;;;;68.50;35.83;;;13.00;99.90;;;11.70;100.00;103135.06;5038375;28;20115;-76
2021/09/09 04:42:03;;;;;;;69.53;36.78;;;13.00;99.90;;;11.83;100.00;103088.25;5039081;28;20531;-76
2021/09/09 04:44:29;;;;;;;83.65;37.95;;;13.10;99.90;;;11.88;100.00;103139.28;5038906;28;20082;-76
2021/09/09 04:46:57;;;;;;;83.35;38.35;;;13.20;99.90;;;11.95;100.00;103155.91;5046045;28;20032;-76
2021/09/09 04:49:23;;;;;;;77.25;36.85;;;13.20;99.90;;;11.99;100.00;103132.06;5041792;28;20484;-76
2021/09/09 04:51:49;;;;;;;95.10;38.45;;;13.20;99.90;;;11.95;100.00;103187.59;5047960;28;20531;-76
2021/09/09 04:54:16;;;;;;;93.10;38.58;;;13.20;99.90;;;11.96;100.00;103187.53;5049762;28;20025;-76
2021/09/09 04:56:42;;;;;;;75.18;39.33;;;13.20;99.90;;;12.05;100.00;103205.03;5040287;28;20063;-76
2021/09/09 04:59:10;;;;;;;69.57;35.30;;;13.20;99.90;;;11.89;100.00;103146.28;5037425;28;20169;-76
2021/09/09 05:01:36;;;;;;;80.72;37.17;;;13.20;99.90;;;12.06;100.00;103173.34;5049743;28;20139;-76
2021/09/09 05:04:02;;;;;;;71.55;38.08;;;13.40;99.90;;;12.23;100.00;103223.28;5038498;28;20094;-76
2021/09/09 05:06:28;;;;;;;75.70;38.97;;;13.50;99.90;;;12.44;100.00;103237.97;5039893;28;20028;-76
2021/09/09 05:08:55;;;;;;;85.63;40.65;;;13.70;99.90;;;12.63;100.00;103250.91;5037997;28;20040;-76
2021/09/09 05:11:21;;;;;;;82.38;42.92;;;13.90;99.90;;;12.74;100.00;103193.44;5039019;28;20111;-76
2021/09/09 05:13:50;;;;;;;86.40;42.38;;;14.00;99.90;;;12.88;100.00;103241.69;5049724;28;20514;-76
2021/09/09 05:16:15;;;;;;;90.28;43.47;;;14.10;99.90;;;13.02;100.00;103294.34;5031368;28;20560;-76
2021/09/09 05:18:41;;;;;;;91.10;43.17;;;14.30;99.90;;;13.12;100.00;103303.03;5049045;28;20034;-76
2021/09/09 05:21:07;;;;;;;89.63;44.28;;;14.30;99.90;;;13.18;100.00;103332.03;5037292;28;20075;-76
2021/09/09 05:23:33;;;;;;;91.30;41.65;;;14.50;99.90;;;13.33;100.00;103509.09;5050101;28;20440;-76
2021/09/09 05:26:00;;;;;;;77.55;41.28;;;14.50;99.90;;;13.47;100.00;103325.41;5031573;28;20082;-76
2021/09/09 05:28:26;;;;;;;77.35;40.42;;;14.70;99.90;;;13.57;100.00;103305.81;5033003;28;20024;-76
2021/09/09 05:30:54;;;;;;;76.95;40.00;;;14.70;99.90;;;13.62;100.00;103319.81;5062179;28;20154;-76
2021/09/09 05:33:20;;;;;;;83.78;39.92;;;14.80;99.90;;;13.72;100.00;103357.63;5047115;28;20025;-76
2021/09/09 05:35:47;;;;;;;73.13;40.33;;;14.90;99.90;;;13.90;100.00;103367.00;5011339;28;20025;-76
2021/09/09 05:38:14;;;;;;;71.93;37.75;;;15.00;99.90;;;14.06;100.00;103439.09;5039975;28;20119;-76
2021/09/09 05:40:40;;;;;;;72.85;37.85;;;15.20;99.90;;;14.18;100.00;103440.66;5064593;28;20411;-76
2021/09/09 05:43:06;;;;;;;68.63;34.08;;;15.30;99.90;;;14.24;100.00;103464.41;5048360;28;20021;-76
2021/09/09 05:45:32;;;;;;;58.45;30.23;;;15.40;99.90;;;14.42;100.00;103445.50;5032799;28;20028;-76
2021/09/09 05:47:58;;;;;;;53.80;27.92;;;15.50;99.90;;;14.64;100.00;103418.56;5052383;28;20013;-76
2021/09/09 05:50:24;;;;;;;47.45;26.58;;;15.70;99.90;;;14.65;100.00;103303.66;5049849;28;20404;-76
2021/09/09 05:52:50;;;;;;;37.72;23.55;;;15.70;99.90;;;14.65;100.00;103259.44;5046007;28;20039;-76
2021/09/09 05:55:16;;;;;;;36.42;22.33;;;15.80;99.90;;;14.85;100.00;103260.75;5033558;28;20025;-76
2021/09/09 05:57:42;;;;;;;41.50;23.83;;;16.00;99.90;;;15.15;100.00;103306.88;5021320;28;20040;-76
2021/09/09 06:00:12;;;;;;;38.45;22.92;;;16.40;99.90;;;15.80;100.00;103300.78;5041966;28;20051;-76
2021/09/09 06:02:44;;;;;;;33.30;20.83;;;16.90;99.90;;;16.28;100.00;103294.09;5046207;28;20021;-76
2021/09/09 06:05:13;;;;;;;33.55;19.80;;;17.50;99.90;;;16.87;96.68;103320.69;5047953;28;20039;-76
2021/09/09 06:07:42;;;;;;;31.90;18.02;;;17.60;99.90;;;16.31;96.71;103200.97;5048953;28;20031;-76
2021/09/09 06:10:09;;;;;;;32.83;17.77;;;17.50;99.90;;;16.07;98.34;103147.66;5061762;28;20035;-76
2021/09/09 06:12:35;;;;;;;48.00;20.00;;;17.30;99.90;;;15.99;98.96;103116.00;5038978;28;20393;-76
2021/09/09 06:15:04;;;;;;;34.20;19.25;;;17.20;99.90;;;16.11;98.89;103114.75;5041994;28;20039;-77
2021/09/09 06:17:31;;;;;;;29.20;19.17;;;17.40;99.90;;;16.52;96.72;103149.75;5060329;28;20472;-76
2021/09/09 06:19:57;;;;;;;39.10;18.55;;;;;;;16.46;95.97;103223.50;5051363;28;20048;-77
2021/09/09 06:22:23;;;;;;;34.13;19.38;;;17.50;99.90;;;16.26;95.68;103331.34;5041995;28;20101;-77
2021/09/09 06:24:49;;;;;;;34.22;18.60;;;17.30;99.90;;;16.16;95.88;103030.41;5050629;28;20044;-77
2021/09/09 06:27:15;;;;;;;31.45;19.30;;;17.20;99.90;;;16.11;96.25;102989.84;5052788;28;20021;-76
2021/09/09 06:29:41;;;;;;;27.60;17.75;;;17.30;99.90;;;16.23;96.89;102983.22;5045254;28;20514;-77
2021/09/09 06:32:08;;;;;;;30.33;18.58;;;17.40;99.90;;;16.51;96.15;103022.16;5014147;28;20036;-77
2021/09/09 06:34:34;;;;;;;31.83;17.10;;;17.70;99.90;;;16.85;93.58;103019.19;5051854;28;20029;-77
2021/09/09 06:37:00;;;;;;;38.33;18.55;;;17.80;99.90;;;16.76;92.85;102982.22;5053442;28;20148;-77
2021/09/09 06:39:29;;;;;;;33.25;17.83;;;17.80;99.90;;;17.04;91.85;103010.50;5007499;28;20020;-77
2021/09/09 06:41:55;;;;;;;30.42;16.98;;;18.10;99.90;;;17.65;89.65;103047.22;5059529;28;20068;-77
2021/09/09 06:44:21;;;;;;;29.45;17.60;;;18.90;99.90;;;18.85;84.12;103432.78;5035745;28;20146;-77
2021/09/09 06:46:47;;;;;;;24.20;15.40;;;20.00;99.90;;;20.44;75.34;103266.47;5034677;28;20059;-77
2021/09/09 06:49:13;;;;;;;47.42;16.58;;;21.30;99.90;;;22.01;70.10;103363.94;5058562;28;20560;-77
2021/09/09 06:51:39;;;;;;;25.48;14.52;;;22.60;99.90;;;23.20;64.17;103365.44;5045890;28;20040;-77
2021/09/09 06:54:06;;;;;;;27.25;14.48;;;23.70;99.90;;;24.14;61.63;103444.06;5020018;28;20059;-77
2021/09/09 06:56:32;;;;;;;22.38;13.60;;;24.50;99.90;;;24.69;57.51;103294.31;5070482;28;20040;-77
2021/09/09 06:58:58;;;;;;;23.27;13.77;;;24.50;99.90;;;24.35;59.07;104937.41;5054791;28;20012;-77
2021/09/09 07:01:24;;;;;;;18.63;13.10;;;25.20;99.90;;;25.27;56.35;104293.56;5041611;28;20507;-77
2021/09/09 07:03:50;;;;;;;22.33;13.70;;;25.40;99.90;;;25.58;55.40;103916.88;5044897;28;20096;-77
2021/09/09 07:06:16;;;;;;;21.98;13.85;;;25.30;99.90;;;24.97;56.41;103651.78;5053505;28;20029;-77
2021/09/09 07:08:43;;;;;;;25.65;14.40;;;25.00;99.90;;;24.42;57.79;103428.91;5042547;28;20031;-77
2021/09/09 07:11:09;;;;;;;21.30;14.13;;;25.00;99.90;;;25.12;54.82;103238.38;5046516;28;20044;-77
2021/09/09 07:13:35;;;;;;;21.98;14.30;;;25.00;99.90;;;25.37;54.62;103177.34;5053607;28;20040;-77
2021/09/09 07:16:04;;;;;;;19.92;13.75;;;25.20;99.90;;;25.61;53.28;103557.81;5035352;28;20021;-77
2021/09/09 07:18:30;;;;;;;27.67;14.55;;;25.40;99.90;;;26.09;51.69;103511.44;5053582;28;20035;-77
2021/09/09 07:20:56;;;;;;;21.83;13.65;;;25.50;99.90;;;25.44;52.94;103245.19;5052959;28;20033;-77
2021/09/09 07:23:25;;;;;;;23.02;13.73;;;26.60;99.90;;;26.48;51.18;103448.38;5054169;28;20028;-77
2021/09/09 07:25:51;;;;;;;24.17;13.48;;;26.30;99.90;;;26.35;50.95;103320.53;5052160;28;20033;-77
2021/09/09 07:28:18;;;;;;;22.20;12.85;;;26.40;99.90;;;26.62;51.53;103392.50;5052129;28;20616;-77
2021/09/09 07:30:44;;;;;;;23.63;13.82;;;27.20;99.90;;;27.00;48.29;103519.44;5034723;28;20029;-77
2021/09/09 07:33:10;;;;;;;20.92;13.60;;;26.40;99.90;;;25.95;50.68;103366.63;5059408;28;20028;-77
2021/09/09 07:35:36;;;;;;;23.88;12.65;;;27.00;99.90;;;26.72;47.29;103302.53;5071156;28;20492;-77
2021/09/09 07:38:03;;;;;;;20.45;13.75;;;26.50;99.90;;;26.60;48.99;103619.56;5069260;28;20527;-77
2021/09/09 07:40:30;;;;;;;21.58;13.15;;;26.90;99.90;;;27.82;46.06;103002.59;5036717;28;20568;-77
2021/09/09 07:42:57;;;;;;;21.83;13.13;;;27.20;99.90;;;27.08;47.03;104212.03;5040328;28;22252;-77
2021/09/09 07:45:24;;;;;;;18.00;12.45;;;27.40;99.90;;;27.34;46.34;102908.31;5066083;28;20504;-78
2021/09/09 07:47:50;;;;;;;19.27;12.45;;;27.00;99.90;;;26.85;47.27;102850.22;5054920;28;20465;-76
2021/09/09 07:50:16;;;;;;;18.95;12.63;;;26.60;99.90;;;26.74;47.99;102754.69;5065102;28;20028;-76
2021/09/09 07:52:42;;;;;;;23.98;12.40;;;27.40;99.90;;;27.73;44.83;106052.06;5037695;28;20029;-76
2021/09/09 07:55:11;;;;;;;16.08;11.00;;;27.60;99.90;;;27.84;43.61;102900.47;5064966;28;20318;-76
2021/09/09 07:57:37;;;;;;;16.83;11.68;;;27.90;99.90;;;28.37;41.77;102846.16;5055059;28;20651;-76
2021/09/09 08:00:07;;;;;;;18.77;11.77;;;27.60;99.90;;;27.68;43.79;102772.84;5047885;28;20465;-76
2021/09/09 08:02:33;;;;;;;22.10;12.43;;;27.70;99.80;;;28.09;42.78;102604.03;5048338;28;20091;-76
2021/09/09 08:04:59;;;;;;;28.75;11.43;;;27.40;99.90;;;27.68;43.66;102507.66;5047965;28;20024;-76
2021/09/09 08:07:48;;;;;;;17.58;11.38;;;27.30;99.90;;;27.78;43.60;102467.94;5001788;28;20358;-76
2021/09/09 08:10:17;;;;;;;19.75;9.70;;;27.50;99.00;;;28.25;41.79;102472.59;5022749;28;20036;-76
2021/09/09 08:12:56;;;;;;;20.88;9.68;;;27.70;98.10;;;27.86;41.11;102443.72;5025738;28;20118;-76
2021/09/09 08:15:31;;;;;;;24.25;10.68;;;27.80;97.90;;;28.05;40.14;102417.63;5015870;28;20190;-76
2021/09/09 08:17:59;;;;;;;14.18;9.25;;;27.60;97.70;;;27.66;40.13;102304.84;5026464;28;22683;-76
2021/09/09 08:20:25;;;;;;;25.20;9.40;;;27.70;97.80;;;28.51;39.01;102354.50;4993372;28;20074;-76
2021/09/09 08:23:14;;;;;;;12.18;8.73;;;27.60;97.70;;;27.92;41.27;102282.59;5022576;28;20039;-77
2021/09/09 08:25:57;;;;;;;16.73;7.78;;;27.60;96.50;;;28.55;38.48;102326.13;5005676;28;20040;-77
2021/09/09 08:28:27;;;;;;;13.77;7.10;;;27.60;95.20;;;28.45;37.45;102322.56;5010652;28;20032;-77
2021/09/09 08:31:07;;;;;;;12.85;7.28;;;27.70;95.80;;;28.35;36.30;102297.38;5005453;28;24998;-77
2021/09/09 08:33:35;;;;;;;17.90;8.50;;;27.90;95.60;;;28.67;36.82;102287.97;4999334;28;20047;-77
2021/09/09 08:36:16;;;;;;;11.70;7.63;;;27.70;95.30;;;28.12;39.04;102213.84;5002710;28;20102;-77
2021/09/09 08:38:43;;;;;;;12.95;7.80;;;28.00;95.20;;;28.90;37.16;102262.13;5023550;28;20522;-77
2021/09/09 08:41:49;;;;;;;18.55;8.77;;;27.80;95.50;;;28.51;38.63;102229.88;5018425;28;20127;-77
2021/09/09 08:44:49;;;;;;;14.25;7.35;;;28.10;94.00;;;28.87;35.56;102318.50;5033774;28;20044;-77
2021/09/09 08:47:17;;;;;;;19.17;8.40;;;28.10;94.40;;;28.51;37.30;102243.44;5017523;28;20535;-77
2021/09/09 08:49:47;;;;;;;25.73;8.85;;;28.20;94.30;;;28.60;36.25;102326.50;5016897;28;20035;-77
2021/09/09 08:52:16;;;;;;;15.15;7.25;;;28.10;94.80;;;28.47;37.88;102254.66;5015177;28;20128;-77
2021/09/09 08:54:42;;;;;;;14.93;7.50;;;28.40;93.80;;;28.79;36.50;102236.09;5011703;28;20040;-76
2021/09/09 08:57:12;;;;;;;11.65;8.27;;;28.20;94.80;;;28.24;38.36;102135.94;5014694;28;20054;-77
2021/09/09 08:59:51;;;;;;;18.77;7.72;;;28.10;95.20;;;28.35;38.84;102130.28;5007056;28;20195;-76
2021/09/09 09:02:25;;;;;;;14.85;8.75;;;28.00;94.80;;;27.83;39.28;102062.38;5029891;28;20071;-77
2021/09/09 09:05:35;;;;;;;12.25;8.07;;;28.30;95.20;;;27.48;41.60;101979.31;5012714;28;20061;-77
2021/09/09 09:08:27;;;;;;;14.27;8.52;;;28.60;95.20;;;27.98;39.73;102012.16;5011995;28;20047;-77
2021/09/09 09:10:56;;;;;;;12.23;7.53;;;28.10;94.30;;;27.20;39.70;101917.97;5017075;28;20049;-77
2021/09/09 09:14:20;;;;;;;16.20;7.68;;;27.70;95.00;;;26.60;41.51;101856.25;5008953;28;20037;-77
2021/09/09 09:17:46;;;;;;;20.02;7.60;;;27.60;95.30;;;26.73;41.68;101860.47;5004931;28;20071;-77
2021/09/09 09:20:42;;;;;;;12.98;7.75;;;27.30;95.30;;;26.24;41.78;101816.59;5006039;28;21078;-76
2021/09/09 09:23:39;;;;;;;14.52;7.75;;;26.60;96.60;;;25.64;44.30;101785.34;5011100;28;20500;-76
2021/09/09 09:26:32;;;;;;;11.43;7.90;;;26.40;95.90;;;25.63;44.05;101799.81;4997217;28;20040;-77
2021/09/09 09:29:53;;;;;;;15.00;7.18;;;26.40;95.80;;;25.33;42.97;101738.84;5022394;28;20059;-76
2021/09/09 09:33:24;;;;;;;11.55;7.15;;;26.30;96.10;;;25.28;43.27;101703.38;5009930;28;20041;-76
2021/09/09 09:37:14;;;;;;;12.63;6.63;;;25.60;96.50;;;24.64;44.08;101651.75;5007096;28;20518;-76
2021/09/09 09:40:02;;;;;;;15.23;7.30;;;25.30;97.10;;;24.64;45.95;101648.22;5007807;28;20033;-76
2021/09/09 09:42:31;;;;;;;10.88;6.85;;;25.20;97.90;;;24.44;48.04;101631.16;5006639;28;20464;-76
2021/09/09 09:45:45;;;;;;;16.10;7.10;;;25.30;97.80;;;24.68;45.69;101703.50;5005038;28;20079;-76
2021/09/09 09:48:40;;;;;;;16.70;7.45;;;25.20;99.40;;;24.76;48.06;101723.34;5072868;28;20457;-76
2021/09/09 09:52:37;;;;;;;14.15;7.80;;;25.50;99.20;;;25.00;46.42;101694.31;5011227;28;20035;-76
2021/09/09 09:55:08;;;;;;;12.40;6.80;;;25.40;98.20;;;24.64;45.14;101622.13;5012791;28;20395;-76
2021/09/09 09:58:23;;;;;;;12.10;6.40;;;25.30;97.80;;;24.89;44.39;101657.59;5023583;28;20069;-76
2021/09/09 10:01:23;;;;;;;17.38;7.20;;;25.20;98.20;;;24.32;46.31;101580.16;5014852;28;20040;-76
2021/09/09 10:04:32;;;;;;;12.55;6.10;;;25.10;98.40;;;24.60;45.21;101592.94;5021091;28;20413;-76
2021/09/09 10:07:20;;;;;;;11.05;6.55;;;25.20;97.30;;;24.75;43.52;101581.63;5018029;28;20463;-76
2021/09/09 10:11:03;;;;;;;9.73;6.32;;;25.10;98.20;;;24.86;45.51;101621.00;5022721;28;20044;-76
2021/09/09 10:13:29;;;;;;;13.82;6.68;;;25.40;97.40;;;24.90;44.99;101584.72;5046321;28;20037;-76